createdAt,value
2023-04-10T00:00:29.075Z,23.92
2023-04-10T00:01:29.087Z,23.91
2023-04-10T00:02:29.352Z,23.91
2023-04-10T00:03:29.207Z,23.91
2023-04-10T00:04:29.213Z,23.90
2023-04-10T00:05:29.129Z,23.90
2023-04-10T00:06:29.079Z,23.90
2023-04-10T00:07:29.059Z,23.91
2023-04-10T00:08:29.044Z,23.91
2023-04-10T00:09:28.996Z,23.90
2023-04-10T00:10:28.968Z,23.90
2023-04-10T00:11:28.950Z,23.90
2023-04-10T00:12:28.922Z,23.90
2023-04-10T00:13:28.906Z,23.90
2023-04-10T00:14:28.858Z,23.90
2023-04-10T00:15:28.876Z,23.90
2023-04-10T00:16:28.833Z,23.91
2023-04-10T00:17:28.821Z,23.90
2023-04-10T00:18:28.765Z,23.90
2023-04-10T00:19:28.754Z,23.90
2023-04-10T00:20:28.779Z,23.89
2023-04-10T00:21:28.788Z,23.89
2023-04-10T00:22:28.803Z,23.90
2023-04-10T00:23:28.830Z,23.89
2023-04-10T00:24:28.845Z,23.89
2023-04-10T00:25:28.877Z,23.88
2023-04-10T00:26:28.880Z,23.88
2023-04-10T00:27:28.903Z,23.88
2023-04-10T00:28:28.914Z,23.87
2023-04-10T00:29:28.962Z,23.86
2023-04-10T00:30:28.972Z,23.87
2023-04-10T00:31:28.974Z,23.87
2023-04-10T00:32:29.026Z,23.86
2023-04-10T00:33:28.953Z,23.86
2023-04-10T00:34:28.942Z,23.87
2023-04-10T00:35:28.916Z,23.86
2023-04-10T00:36:28.865Z,23.86
2023-04-10T00:37:28.846Z,23.86
2023-04-10T00:38:28.847Z,23.86
2023-04-10T00:39:28.805Z,23.86
2023-04-10T00:40:28.807Z,23.86
2023-04-10T00:41:28.791Z,23.86
2023-04-10T00:42:28.742Z,23.87
2023-04-10T00:43:28.720Z,23.86
2023-04-10T00:44:28.689Z,23.86
2023-04-10T00:45:28.673Z,23.86
2023-04-10T00:46:28.710Z,23.86
2023-04-10T00:47:28.666Z,23.86
2023-04-10T00:48:28.678Z,23.86
2023-04-10T00:49:28.674Z,23.84
2023-04-10T00:50:28.696Z,23.85
2023-04-10T00:51:28.714Z,23.85
2023-04-10T00:52:28.748Z,23.85
2023-04-10T00:53:28.767Z,23.85
2023-04-10T00:54:28.763Z,23.85
2023-04-10T00:55:28.815Z,23.84
2023-04-10T00:56:28.808Z,23.84
2023-04-10T00:57:28.821Z,23.85
2023-04-10T00:58:28.865Z,23.84
2023-04-10T00:59:28.901Z,23.84
2023-04-10T01:00:28.851Z,23.83
2023-04-10T01:01:28.888Z,23.83
2023-04-10T01:02:28.989Z,23.83
2023-04-10T01:03:28.985Z,23.83
2023-04-10T01:04:28.944Z,23.84
2023-04-10T01:05:28.767Z,23.83
2023-04-10T01:06:28.739Z,23.83
2023-04-10T01:07:28.714Z,23.83
2023-04-10T01:08:28.744Z,23.83
2023-04-10T01:09:28.694Z,23.84
2023-04-10T01:10:28.657Z,23.83
2023-04-10T01:11:28.612Z,23.82
2023-04-10T01:12:28.605Z,23.82
2023-04-10T01:13:28.617Z,23.83
2023-04-10T01:14:28.540Z,23.83
2023-04-10T01:15:28.537Z,23.82
2023-04-10T01:16:28.521Z,23.83
2023-04-10T01:17:28.539Z,23.82
2023-04-10T01:18:28.444Z,23.82
2023-04-10T01:19:28.448Z,23.81
2023-04-10T01:20:28.479Z,23.82
2023-04-10T01:21:28.495Z,23.82
2023-04-10T01:22:28.519Z,23.81
2023-04-10T01:23:28.543Z,23.82
2023-04-10T01:24:28.597Z,23.82
2023-04-10T01:25:28.589Z,23.82
2023-04-10T01:26:28.558Z,23.82
2023-04-10T01:27:28.540Z,23.82
2023-04-10T01:28:28.501Z,23.81
2023-04-10T01:29:28.474Z,23.82
2023-04-10T01:30:28.452Z,23.81
2023-04-10T01:31:28.440Z,23.81
2023-04-10T01:32:28.408Z,23.80
2023-04-10T01:33:28.367Z,23.81
2023-04-10T01:34:28.382Z,23.81
2023-04-10T01:35:28.368Z,23.81
2023-04-10T01:36:28.299Z,23.81
2023-04-10T01:37:28.270Z,23.81
2023-04-10T01:38:28.262Z,23.81
2023-04-10T01:39:28.294Z,23.80
2023-04-10T01:40:28.310Z,23.80
2023-04-10T01:41:28.351Z,23.80
2023-04-10T01:42:28.368Z,23.80
2023-04-10T01:43:28.392Z,23.81
2023-04-10T01:44:28.434Z,23.81
2023-04-10T01:45:28.471Z,23.81
2023-04-10T01:46:28.503Z,23.80
2023-04-10T01:47:28.517Z,23.80
2023-04-10T01:48:28.499Z,23.80
2023-04-10T01:49:28.566Z,23.80
2023-04-10T01:50:28.573Z,23.79
2023-04-10T01:51:28.617Z,23.79
2023-04-10T01:52:28.624Z,23.79
2023-04-10T01:53:28.645Z,23.79
2023-04-10T01:54:28.669Z,23.78
2023-04-10T01:55:28.704Z,23.78
2023-04-10T01:56:28.731Z,23.78
2023-04-10T01:57:28.758Z,23.78
2023-04-10T01:58:28.801Z,23.78
2023-04-10T01:59:28.840Z,23.78
2023-04-10T02:00:28.917Z,23.78
2023-04-10T02:01:30.499Z,23.78
2023-04-10T02:02:29.063Z,23.78
2023-04-10T02:03:29.218Z,23.78
2023-04-10T02:04:29.114Z,23.78
2023-04-10T02:05:29.015Z,23.77
2023-04-10T02:06:29.037Z,23.77
2023-04-10T02:07:29.086Z,23.77
2023-04-10T02:08:29.106Z,23.76
2023-04-10T02:09:29.136Z,23.77
2023-04-10T02:10:29.159Z,23.78
2023-04-10T02:11:29.160Z,23.76
2023-04-10T02:12:29.127Z,23.75
2023-04-10T02:13:29.106Z,23.76
2023-04-10T02:14:29.108Z,23.75
2023-04-10T02:15:29.096Z,23.76
2023-04-10T02:16:29.097Z,23.76
2023-04-10T02:17:29.068Z,23.76
2023-04-10T02:18:29.025Z,23.77
2023-04-10T02:19:28.999Z,23.76
2023-04-10T02:20:28.977Z,23.75
2023-04-10T02:21:28.993Z,23.76
2023-04-10T02:22:28.959Z,23.75
2023-04-10T02:23:28.959Z,23.75
2023-04-10T02:24:29.025Z,23.75
2023-04-10T02:25:29.012Z,23.75
2023-04-10T02:26:29.046Z,23.74
2023-04-10T02:27:29.112Z,23.75
2023-04-10T02:28:29.096Z,23.75
2023-04-10T02:29:29.146Z,23.75
2023-04-10T02:30:29.172Z,23.75
2023-04-10T02:31:29.245Z,23.75
2023-04-10T02:32:29.299Z,23.76
2023-04-10T02:33:29.296Z,23.75
2023-04-10T02:34:29.311Z,23.74
2023-04-10T02:35:29.357Z,23.74
2023-04-10T02:36:29.384Z,23.74
2023-04-10T02:37:29.354Z,23.75
2023-04-10T02:38:29.349Z,23.74
2023-04-10T02:39:29.311Z,23.74
2023-04-10T02:40:29.289Z,23.74
2023-04-10T02:41:29.284Z,23.75
2023-04-10T02:42:29.279Z,23.74
2023-04-10T02:43:29.232Z,23.73
2023-04-10T02:44:29.271Z,23.71
2023-04-10T02:45:29.202Z,23.69
2023-04-10T02:46:29.226Z,23.67
2023-04-10T02:47:29.210Z,23.66
2023-04-10T02:48:29.156Z,23.68
2023-04-10T02:49:29.130Z,23.68
2023-04-10T02:50:29.131Z,23.66
2023-04-10T02:51:29.100Z,23.65
2023-04-10T02:52:29.074Z,23.64
2023-04-10T02:53:29.066Z,23.59
2023-04-10T02:54:29.032Z,23.56
2023-04-10T02:55:29.026Z,23.53
2023-04-10T02:56:29.006Z,23.52
2023-04-10T02:57:28.999Z,23.48
2023-04-10T02:58:28.957Z,23.43
2023-04-10T02:59:28.947Z,23.41
2023-04-10T03:00:28.950Z,23.39
2023-04-10T03:01:28.940Z,23.40
2023-04-10T03:02:28.990Z,23.37
2023-04-10T03:03:29.008Z,23.33
2023-04-10T03:04:29.055Z,23.32
2023-04-10T03:05:29.011Z,23.30
2023-04-10T03:06:28.957Z,23.31
2023-04-10T03:07:28.949Z,23.29
2023-04-10T03:08:28.941Z,23.30
2023-04-10T03:09:28.949Z,23.31
2023-04-10T03:10:28.966Z,23.31
2023-04-10T03:11:29.062Z,23.31
2023-04-10T03:12:29.046Z,23.30
2023-04-10T03:13:29.075Z,23.29
2023-04-10T03:14:29.040Z,23.28
2023-04-10T03:15:29.028Z,23.29
2023-04-10T03:16:29.070Z,23.27
2023-04-10T03:17:29.126Z,23.27
2023-04-10T03:18:29.020Z,23.25
2023-04-10T03:19:29.011Z,23.23
2023-04-10T03:20:28.989Z,23.23
2023-04-10T03:21:28.990Z,23.21
2023-04-10T03:22:28.957Z,23.21
2023-04-10T03:23:28.935Z,23.20
2023-04-10T03:24:28.958Z,23.18
2023-04-10T03:25:28.918Z,23.17
2023-04-10T03:26:28.881Z,23.19
2023-04-10T03:27:28.869Z,23.18
2023-04-10T03:28:28.841Z,23.17
2023-04-10T03:29:28.830Z,23.17
2023-04-10T03:30:28.814Z,23.16
2023-04-10T03:31:28.827Z,23.15
2023-04-10T03:32:28.778Z,23.12
2023-04-10T03:33:28.764Z,23.12
2023-04-10T03:34:28.729Z,23.11
2023-04-10T03:35:28.707Z,23.09
2023-04-10T03:36:28.711Z,23.10
2023-04-10T03:37:28.686Z,23.09
2023-04-10T03:38:28.665Z,23.08
2023-04-10T03:39:28.645Z,23.09
2023-04-10T03:40:28.644Z,23.09
2023-04-10T03:41:28.611Z,23.08
2023-04-10T03:42:28.583Z,23.08
2023-04-10T03:43:28.586Z,23.07
2023-04-10T03:44:28.562Z,23.08
2023-04-10T03:45:28.535Z,23.07
2023-04-10T03:46:28.548Z,23.06
2023-04-10T03:47:28.525Z,23.06
2023-04-10T03:48:28.630Z,23.07
2023-04-10T03:49:28.518Z,23.06
2023-04-10T03:50:28.539Z,23.05
2023-04-10T03:51:28.536Z,23.05
2023-04-10T03:52:28.562Z,23.04
2023-04-10T03:53:28.585Z,23.02
2023-04-10T03:54:28.586Z,23.02
2023-04-10T03:55:28.602Z,23.02
2023-04-10T03:56:28.594Z,23.01
2023-04-10T03:57:28.567Z,23.01
2023-04-10T03:58:28.543Z,23.00
2023-04-10T03:59:37.762Z,23.00
2023-04-10T04:00:29.529Z,22.99
2023-04-10T04:01:28.476Z,23.00
2023-04-10T04:02:28.563Z,22.99
2023-04-10T04:03:28.568Z,22.99
2023-04-10T04:04:28.615Z,22.98
2023-04-10T04:05:28.435Z,22.98
2023-04-10T04:06:28.444Z,22.97
2023-04-10T04:07:28.403Z,22.97
2023-04-10T04:08:28.405Z,22.97
2023-04-10T04:09:28.404Z,22.97
2023-04-10T04:10:28.384Z,22.97
2023-04-10T04:11:28.386Z,22.97
2023-04-10T04:12:28.357Z,22.96
2023-04-10T04:13:28.330Z,22.95
2023-04-10T04:14:28.342Z,22.95
2023-04-10T04:15:28.308Z,22.94
2023-04-10T04:16:28.336Z,22.94
2023-04-10T04:17:28.281Z,22.93
2023-04-10T04:18:28.264Z,22.94
2023-04-10T04:19:28.271Z,22.93
2023-04-10T04:20:28.243Z,22.92
2023-04-10T04:21:28.230Z,22.91
2023-04-10T04:22:28.225Z,22.90
2023-04-10T04:23:28.216Z,22.91
2023-04-10T04:24:28.205Z,22.90
2023-04-10T04:25:28.219Z,22.90
2023-04-10T04:26:28.174Z,22.89
2023-04-10T04:27:28.182Z,22.88
2023-04-10T04:28:29.589Z,22.88
2023-04-10T04:29:28.154Z,22.89
2023-04-10T04:30:28.136Z,22.89
2023-04-10T04:31:28.147Z,22.89
2023-04-10T04:32:28.155Z,22.89
2023-04-10T04:33:28.106Z,22.89
2023-04-10T04:34:28.122Z,22.89
2023-04-10T04:35:28.209Z,22.89
2023-04-10T04:36:28.175Z,22.88
2023-04-10T04:37:28.219Z,22.88
2023-04-10T04:38:28.239Z,22.88
2023-04-10T04:39:28.261Z,22.87
2023-04-10T04:40:28.304Z,22.86
2023-04-10T04:41:28.361Z,22.86
2023-04-10T04:42:28.358Z,22.86
2023-04-10T04:43:28.390Z,22.86
2023-04-10T04:44:28.421Z,22.85
2023-04-10T04:45:28.458Z,22.84
2023-04-10T04:46:28.554Z,22.84
2023-04-10T04:47:28.466Z,22.84
2023-04-10T04:48:28.408Z,22.84
2023-04-10T04:49:28.402Z,22.84
2023-04-10T04:50:28.400Z,22.84
2023-04-10T04:51:28.384Z,22.84
2023-04-10T04:52:28.385Z,22.84
2023-04-10T04:53:28.370Z,22.84
2023-04-10T04:54:28.344Z,22.84
2023-04-10T04:55:28.361Z,22.83
2023-04-10T04:56:28.321Z,22.83
2023-04-10T04:57:28.305Z,22.83
2023-04-10T04:58:28.307Z,22.82
2023-04-10T04:59:28.324Z,22.81
2023-04-10T05:00:28.363Z,22.80
2023-04-10T05:01:28.389Z,22.81
2023-04-10T05:02:28.556Z,22.81
2023-04-10T05:03:28.592Z,22.81
2023-04-10T05:04:28.348Z,22.81
2023-04-10T05:05:28.289Z,22.81
2023-04-10T05:06:28.306Z,22.83
2023-04-10T05:07:28.299Z,22.82
2023-04-10T05:08:28.269Z,22.81
2023-04-10T05:09:28.267Z,22.81
2023-04-10T05:10:28.237Z,22.80
2023-04-10T05:11:28.235Z,22.80
2023-04-10T05:12:28.214Z,22.81
2023-04-10T05:13:28.211Z,22.81
2023-04-10T05:14:28.215Z,22.80
2023-04-10T05:15:28.249Z,22.79
2023-04-10T05:16:28.262Z,22.79
2023-04-10T05:17:28.311Z,22.78
2023-04-10T05:18:28.357Z,22.77
2023-04-10T05:19:28.374Z,22.77
2023-04-10T05:20:28.395Z,22.77
2023-04-10T05:21:28.437Z,22.77
2023-04-10T05:22:28.465Z,22.77
2023-04-10T05:23:28.524Z,22.76
2023-04-10T05:24:28.536Z,22.77
2023-04-10T05:25:28.587Z,22.78
2023-04-10T05:26:28.624Z,22.77
2023-04-10T05:27:28.672Z,22.76
2023-04-10T05:28:28.716Z,22.77
2023-04-10T05:29:28.721Z,22.77
2023-04-10T05:30:28.778Z,22.76
2023-04-10T05:31:28.839Z,22.76
2023-04-10T05:32:28.843Z,22.76
2023-04-10T05:33:28.845Z,22.75
2023-04-10T05:34:28.892Z,22.74
2023-04-10T05:35:28.915Z,22.74
2023-04-10T05:36:28.969Z,22.73
2023-04-10T05:37:29.008Z,22.73
2023-04-10T05:38:29.041Z,22.74
2023-04-10T05:39:29.064Z,22.74
2023-04-10T05:40:29.112Z,22.73
2023-04-10T05:41:29.243Z,22.74
2023-04-10T05:42:29.187Z,22.73
2023-04-10T05:43:29.223Z,22.73
2023-04-10T05:44:29.260Z,22.74
2023-04-10T05:45:29.287Z,22.74
2023-04-10T05:46:29.424Z,22.74
2023-04-10T05:47:29.415Z,22.73
2023-04-10T05:48:29.447Z,22.73
2023-04-10T05:49:29.466Z,22.73
2023-04-10T05:50:30.619Z,22.73
2023-04-10T05:51:29.534Z,22.74
2023-04-10T05:52:29.554Z,22.72
2023-04-10T05:53:29.594Z,22.72
2023-04-10T05:54:29.608Z,22.71
2023-04-10T05:55:29.646Z,22.72
2023-04-10T05:56:29.715Z,22.71
2023-04-10T05:57:29.729Z,22.71
2023-04-10T05:58:29.767Z,22.71
2023-04-10T05:59:29.791Z,22.71
2023-04-10T06:00:29.858Z,22.71
2023-04-10T06:01:29.905Z,22.72
2023-04-10T06:02:30.042Z,22.72
2023-04-10T06:03:30.017Z,22.72
2023-04-10T06:04:30.097Z,22.71
2023-04-10T06:05:30.076Z,22.71
2023-04-10T06:06:30.076Z,22.70
2023-04-10T06:07:30.105Z,22.69
2023-04-10T06:08:30.172Z,22.70
2023-04-10T06:09:30.174Z,22.70
2023-04-10T06:10:30.257Z,22.70
2023-04-10T06:11:30.276Z,22.69
2023-04-10T06:12:30.325Z,22.70
2023-04-10T06:13:30.372Z,22.71
2023-04-10T06:14:30.378Z,22.71
2023-04-10T06:15:30.443Z,22.70
2023-04-10T06:16:30.565Z,22.69
2023-04-10T06:17:30.523Z,22.70
2023-04-10T06:18:30.567Z,22.70
2023-04-10T06:19:30.602Z,22.71
2023-04-10T06:20:30.679Z,22.69
2023-04-10T06:21:30.699Z,22.69
2023-04-10T06:22:30.742Z,22.68
2023-04-10T06:23:30.780Z,22.68
2023-04-10T06:24:30.823Z,22.68
2023-04-10T06:25:30.871Z,22.68
2023-04-10T06:26:30.926Z,22.68
2023-04-10T06:27:30.941Z,22.69
2023-04-10T06:28:30.949Z,22.68
2023-04-10T06:29:30.917Z,22.70
2023-04-10T06:30:31.111Z,22.67
2023-04-10T06:31:30.927Z,22.67
2023-04-10T06:32:30.927Z,22.66
2023-04-10T06:33:30.873Z,22.66
2023-04-10T06:34:30.855Z,22.66
2023-04-10T06:35:30.835Z,22.65
2023-04-10T06:36:30.837Z,22.65
2023-04-10T06:37:30.825Z,22.66
2023-04-10T06:38:30.819Z,22.66
2023-04-10T06:39:30.850Z,22.65
2023-04-10T06:40:30.899Z,22.65
2023-04-10T06:41:30.926Z,22.65
2023-04-10T06:42:30.988Z,22.65
2023-04-10T06:43:31.016Z,22.65
2023-04-10T06:44:31.054Z,22.65
2023-04-10T06:45:31.063Z,22.66
2023-04-10T06:46:31.179Z,22.66
2023-04-10T06:47:31.190Z,22.66
2023-04-10T06:48:31.174Z,22.65
2023-04-10T06:49:31.224Z,22.65
2023-04-10T06:50:33.461Z,22.65
2023-04-10T06:51:31.302Z,22.67
2023-04-10T06:52:31.365Z,22.69
2023-04-10T06:53:31.379Z,22.73
2023-04-10T06:54:31.417Z,22.76
2023-04-10T06:55:31.459Z,22.77
2023-04-10T06:56:31.498Z,22.79
2023-04-10T06:57:31.544Z,22.82
2023-04-10T06:58:31.584Z,22.84
2023-04-10T06:59:31.620Z,22.86
2023-04-10T07:00:31.678Z,22.88
2023-04-10T07:01:31.718Z,22.89
2023-04-10T07:02:31.780Z,22.90
2023-04-10T07:03:31.796Z,22.92
2023-04-10T07:04:31.794Z,22.94
2023-04-10T07:05:31.828Z,22.95
2023-04-10T07:06:31.862Z,22.96
2023-04-10T07:07:31.922Z,22.97
2023-04-10T07:08:31.941Z,22.99
2023-04-10T07:09:31.967Z,23.00
2023-04-10T07:10:31.988Z,23.00
2023-04-10T07:11:32.012Z,23.02
2023-04-10T07:12:32.060Z,23.04
2023-04-10T07:13:32.088Z,23.04
2023-04-10T07:14:32.097Z,23.05
2023-04-10T07:15:32.123Z,23.07
2023-04-10T07:16:32.167Z,23.08
2023-04-10T07:17:32.225Z,23.09
2023-04-10T07:18:32.200Z,23.09
2023-04-10T07:19:32.250Z,23.09
2023-04-10T07:20:32.278Z,23.09
2023-04-10T07:21:32.315Z,23.07
2023-04-10T07:22:32.356Z,23.05
2023-04-10T07:23:32.390Z,23.05
2023-04-10T07:24:32.439Z,23.06
2023-04-10T07:25:32.488Z,23.04
2023-04-10T07:26:32.506Z,23.04
2023-04-10T07:27:32.551Z,23.05
2023-04-10T07:28:32.614Z,23.04
2023-04-10T07:29:32.610Z,23.03
2023-04-10T07:30:32.655Z,23.03
2023-04-10T07:31:32.745Z,23.03
2023-04-10T07:32:32.829Z,23.04
2023-04-10T07:33:32.757Z,23.03
2023-04-10T07:34:32.751Z,23.03
2023-04-10T07:35:32.780Z,23.03
2023-04-10T07:36:32.800Z,23.02
2023-04-10T07:37:32.838Z,23.02
2023-04-10T07:38:32.859Z,23.02
2023-04-10T07:39:32.898Z,23.02
2023-04-10T07:40:32.958Z,23.02
2023-04-10T07:41:32.985Z,23.02
2023-04-10T07:42:32.995Z,23.03
2023-04-10T07:43:33.018Z,23.03
2023-04-10T07:44:33.054Z,23.03
2023-04-10T07:45:33.111Z,23.02
2023-04-10T07:46:33.123Z,23.03
2023-04-10T07:47:33.143Z,23.03
2023-04-10T07:48:33.179Z,23.04
2023-04-10T07:49:33.213Z,23.04
2023-04-10T07:50:33.470Z,23.04
2023-04-10T07:51:35.175Z,23.05
2023-04-10T07:52:33.306Z,23.04
2023-04-10T07:53:33.311Z,23.05
2023-04-10T07:54:33.352Z,23.06
2023-04-10T07:55:33.389Z,23.06
2023-04-10T07:56:33.409Z,23.08
2023-04-10T07:57:33.448Z,23.08
2023-04-10T07:58:33.469Z,23.08
2023-04-10T07:59:33.519Z,23.09
2023-04-10T08:00:33.557Z,23.08
2023-04-10T08:01:33.594Z,23.10
2023-04-10T08:02:33.707Z,23.10
2023-04-10T08:03:33.703Z,23.10
2023-04-10T08:04:33.853Z,23.10
2023-04-10T08:05:33.708Z,23.11
2023-04-10T08:06:33.720Z,23.12
2023-04-10T08:07:33.733Z,23.12
2023-04-10T08:08:33.764Z,23.13
2023-04-10T08:09:33.783Z,23.14
2023-04-10T08:10:33.819Z,23.15
2023-04-10T08:11:35.254Z,23.16
2023-04-10T08:12:33.840Z,23.17
2023-04-10T08:13:33.817Z,23.18
2023-04-10T08:14:33.778Z,23.18
2023-04-10T08:15:33.786Z,23.18
2023-04-10T08:16:33.771Z,23.19
2023-04-10T08:17:33.771Z,23.20
2023-04-10T08:18:33.738Z,23.21
2023-04-10T08:19:33.708Z,23.23
2023-04-10T08:20:33.685Z,23.24
2023-04-10T08:21:33.680Z,23.26
2023-04-10T08:22:33.686Z,23.26
2023-04-10T08:23:33.634Z,23.28
2023-04-10T08:24:33.629Z,23.29
2023-04-10T08:25:33.595Z,23.30
2023-04-10T08:26:33.579Z,23.30
2023-04-10T08:27:33.552Z,23.31
2023-04-10T08:28:33.539Z,23.30
2023-04-10T08:29:33.522Z,23.32
2023-04-10T08:30:33.563Z,23.33
2023-04-10T08:31:33.554Z,23.34
2023-04-10T08:32:33.505Z,23.36
2023-04-10T08:33:33.455Z,23.36
2023-04-10T08:34:33.456Z,23.37
2023-04-10T08:35:33.469Z,23.38
2023-04-10T08:36:33.439Z,23.38
2023-04-10T08:37:33.415Z,23.38
2023-04-10T08:38:33.386Z,23.39
2023-04-10T08:39:33.368Z,23.39
2023-04-10T08:40:33.391Z,23.38
2023-04-10T08:41:33.354Z,23.39
2023-04-10T08:42:34.617Z,23.39
2023-04-10T08:43:33.408Z,23.40
2023-04-10T08:44:33.413Z,23.40
2023-04-10T08:45:33.486Z,23.40
2023-04-10T08:46:33.496Z,23.40
2023-04-10T08:47:33.525Z,23.41
2023-04-10T08:48:33.458Z,23.42
2023-04-10T08:49:33.445Z,23.45
2023-04-10T08:50:33.417Z,23.48
2023-04-10T08:51:33.412Z,23.52
2023-04-10T08:52:33.426Z,23.55
2023-04-10T08:53:33.441Z,23.58
2023-04-10T08:54:33.465Z,23.61
2023-04-10T08:55:33.495Z,23.64
2023-04-10T08:56:33.537Z,23.66
2023-04-10T08:57:33.563Z,23.69
2023-04-10T08:58:33.613Z,23.73
2023-04-10T08:59:33.654Z,23.75
2023-04-10T09:00:33.669Z,23.78
2023-04-10T09:01:33.709Z,23.80
2023-04-10T09:02:33.921Z,23.82
2023-04-10T09:03:33.787Z,23.85
2023-04-10T09:04:33.792Z,23.87
2023-04-10T09:05:33.697Z,23.89
2023-04-10T09:06:33.695Z,23.91
2023-04-10T09:07:33.697Z,23.93
2023-04-10T09:08:33.696Z,23.96
2023-04-10T09:09:33.667Z,23.98
2023-04-10T09:10:33.658Z,23.99
2023-04-10T09:11:33.631Z,24.01
2023-04-10T09:12:33.622Z,24.04
2023-04-10T09:13:33.597Z,24.05
2023-04-10T09:14:33.598Z,24.06
2023-04-10T09:15:33.592Z,24.08
2023-04-10T09:16:33.588Z,24.10
2023-04-10T09:17:33.547Z,24.13
2023-04-10T09:18:33.501Z,24.14
2023-04-10T09:19:33.489Z,24.17
2023-04-10T09:20:33.487Z,24.19
2023-04-10T09:21:33.508Z,24.21
2023-04-10T09:22:33.551Z,24.22
2023-04-10T09:23:33.554Z,24.24
2023-04-10T09:24:34.223Z,24.26
2023-04-10T09:25:33.620Z,24.28
2023-04-10T09:26:33.793Z,24.30
2023-04-10T09:27:33.746Z,24.33
2023-04-10T09:28:33.744Z,24.35
2023-04-10T09:29:33.774Z,24.36
2023-04-10T09:30:33.811Z,24.38
2023-04-10T09:31:33.866Z,24.40
2023-04-10T09:32:33.889Z,24.41
2023-04-10T09:33:33.890Z,24.42
2023-04-10T09:34:33.928Z,24.46
2023-04-10T09:35:33.936Z,24.48
2023-04-10T09:36:33.977Z,24.49
2023-04-10T09:37:33.988Z,24.52
2023-04-10T09:38:34.012Z,24.54
2023-04-10T09:39:34.042Z,24.57
2023-04-10T09:40:34.045Z,24.60
2023-04-10T09:41:34.044Z,24.62
2023-04-10T09:42:34.086Z,24.65
2023-04-10T09:43:34.101Z,24.67
2023-04-10T09:44:34.077Z,24.70
2023-04-10T09:45:34.103Z,24.71
2023-04-10T09:46:34.129Z,24.73
2023-04-10T09:47:34.137Z,24.76
2023-04-10T09:48:34.121Z,24.77
2023-04-10T09:49:34.126Z,24.79
2023-04-10T09:50:37.157Z,24.81
2023-04-10T09:51:35.085Z,24.82
2023-04-10T09:52:34.060Z,24.85
2023-04-10T09:53:34.014Z,24.86
2023-04-10T09:54:33.990Z,24.87
2023-04-10T09:55:33.961Z,24.88
2023-04-10T09:56:33.936Z,24.90
2023-04-10T09:57:33.875Z,24.92
2023-04-10T09:58:33.845Z,24.92
2023-04-10T09:59:33.840Z,24.95
2023-04-10T10:00:33.787Z,24.96
2023-04-10T10:01:33.776Z,24.96
2023-04-10T10:02:33.970Z,24.98
2023-04-10T10:03:33.739Z,24.98
2023-04-10T10:04:33.670Z,24.99
2023-04-10T10:05:33.677Z,25.01
2023-04-10T10:06:33.647Z,25.03
2023-04-10T10:07:33.606Z,25.03
2023-04-10T10:08:33.622Z,25.04
2023-04-10T10:09:33.588Z,25.05
2023-04-10T10:10:33.549Z,25.06
2023-04-10T10:11:33.570Z,25.07
2023-04-10T10:12:33.524Z,25.09
2023-04-10T10:13:33.543Z,25.11
2023-04-10T10:14:33.491Z,25.12
2023-04-10T10:15:33.442Z,25.12
2023-04-10T10:16:33.446Z,25.15
2023-04-10T10:17:33.401Z,25.15
2023-04-10T10:18:33.370Z,25.17
2023-04-10T10:19:33.356Z,25.18
2023-04-10T10:20:34.638Z,25.19
2023-04-10T10:21:33.308Z,25.21
2023-04-10T10:22:33.296Z,25.21
2023-04-10T10:23:33.288Z,25.22
2023-04-10T10:24:33.270Z,25.24
2023-04-10T10:25:33.274Z,25.25
2023-04-10T10:26:33.275Z,25.26
2023-04-10T10:27:33.253Z,25.26
2023-04-10T10:28:33.221Z,25.28
2023-04-10T10:29:33.212Z,25.29
2023-04-10T10:30:33.212Z,25.31
2023-04-10T10:31:33.194Z,25.33
2023-04-10T10:32:33.252Z,25.33
2023-04-10T10:33:33.196Z,25.35
2023-04-10T10:34:33.129Z,25.37
2023-04-10T10:35:33.098Z,25.37
2023-04-10T10:36:33.090Z,25.38
2023-04-10T10:37:33.009Z,25.40
2023-04-10T10:38:32.948Z,25.41
2023-04-10T10:39:32.925Z,25.43
2023-04-10T10:40:32.916Z,25.44
2023-04-10T10:41:32.842Z,25.44
2023-04-10T10:42:32.868Z,25.46
2023-04-10T10:43:32.893Z,25.47
2023-04-10T10:44:32.914Z,25.48
2023-04-10T10:45:32.941Z,25.48
2023-04-10T10:46:32.975Z,25.48
2023-04-10T10:47:33.019Z,25.49
2023-04-10T10:48:32.980Z,25.51
2023-04-10T10:49:32.995Z,25.53
2023-04-10T10:50:33.029Z,25.54
2023-04-10T10:51:33.060Z,25.55
2023-04-10T10:52:32.971Z,25.55
2023-04-10T10:53:32.975Z,25.55
2023-04-10T10:54:32.890Z,25.57
2023-04-10T10:55:32.852Z,25.57
2023-04-10T10:56:32.833Z,25.58
2023-04-10T10:57:32.765Z,25.59
2023-04-10T10:58:32.705Z,25.61
2023-04-10T10:59:32.704Z,25.61
2023-04-10T11:00:32.649Z,25.62
2023-04-10T11:01:32.590Z,25.64
2023-04-10T11:02:32.718Z,25.65
2023-04-10T11:03:32.684Z,25.66
2023-04-10T11:04:32.530Z,25.68
2023-04-10T11:05:32.522Z,25.70
2023-04-10T11:06:32.542Z,25.71
2023-04-10T11:07:32.522Z,25.74
2023-04-10T11:08:32.502Z,25.75
2023-04-10T11:09:32.511Z,25.76
2023-04-10T11:10:34.590Z,25.79
2023-04-10T11:11:32.728Z,25.79
2023-04-10T11:12:32.692Z,25.77
2023-04-10T11:13:32.686Z,25.78
2023-04-10T11:14:32.699Z,25.80
2023-04-10T11:15:32.703Z,25.80
2023-04-10T11:16:32.661Z,25.83
2023-04-10T11:17:32.692Z,25.85
2023-04-10T11:18:32.660Z,25.87
2023-04-10T11:19:32.644Z,25.88
2023-04-10T11:20:32.667Z,25.90
2023-04-10T11:21:32.615Z,25.92
2023-04-10T11:22:32.618Z,25.93
2023-04-10T11:23:32.609Z,25.95
2023-04-10T11:24:32.605Z,25.97
2023-04-10T11:25:32.604Z,25.99
2023-04-10T11:26:32.584Z,26.01
2023-04-10T11:27:32.552Z,26.06
2023-04-10T11:28:32.526Z,26.09
2023-04-10T11:29:32.527Z,26.10
2023-04-10T11:30:32.503Z,26.12
2023-04-10T11:31:32.477Z,26.12
2023-04-10T11:32:32.460Z,26.14
2023-04-10T11:33:32.459Z,26.14
2023-04-10T11:34:32.449Z,26.16
2023-04-10T11:35:32.480Z,26.17
2023-04-10T11:36:32.374Z,26.18
2023-04-10T11:37:32.363Z,26.17
2023-04-10T11:38:32.338Z,26.18
2023-04-10T11:39:32.294Z,26.19
2023-04-10T11:40:32.248Z,26.20
2023-04-10T11:41:32.214Z,26.21
2023-04-10T11:42:32.200Z,26.22
2023-04-10T11:43:32.267Z,26.21
2023-04-10T11:44:32.313Z,26.21
2023-04-10T11:45:32.353Z,26.23
2023-04-10T11:46:32.562Z,26.23
2023-04-10T11:47:32.515Z,26.25
2023-04-10T11:48:32.423Z,26.25
2023-04-10T11:49:32.378Z,26.26
2023-04-10T11:50:32.341Z,26.27
2023-04-10T11:51:32.304Z,26.28
2023-04-10T11:52:32.262Z,26.29
2023-04-10T11:53:32.269Z,26.30
2023-04-10T11:54:32.203Z,26.30
2023-04-10T11:55:32.175Z,26.30
2023-04-10T11:56:32.147Z,26.31
2023-04-10T11:57:32.121Z,26.31
2023-04-10T11:58:32.117Z,26.32
2023-04-10T11:59:32.057Z,26.33
2023-04-10T12:00:32.034Z,26.34
2023-04-10T12:01:32.080Z,26.34
2023-04-10T12:02:32.197Z,26.35
2023-04-10T12:03:32.253Z,26.35
2023-04-10T12:04:32.182Z,26.35
2023-04-10T12:05:32.095Z,26.36
2023-04-10T12:06:32.010Z,26.37
2023-04-10T12:07:33.054Z,26.37
2023-04-10T12:08:31.921Z,26.39
2023-04-10T12:09:31.858Z,26.40
2023-04-10T12:10:31.796Z,26.39
2023-04-10T12:11:31.727Z,26.40
2023-04-10T12:12:31.685Z,26.41
2023-04-10T12:13:31.647Z,26.41
2023-04-10T12:14:31.605Z,26.42
2023-04-10T12:15:31.600Z,26.42
2023-04-10T12:16:31.489Z,26.43
2023-04-10T12:17:31.493Z,26.44
2023-04-10T12:18:31.408Z,26.44
2023-04-10T12:19:31.420Z,26.45
2023-04-10T12:20:31.450Z,26.45
2023-04-10T12:21:31.479Z,26.46
2023-04-10T12:22:31.481Z,26.47
2023-04-10T12:23:31.495Z,26.48
2023-04-10T12:24:31.497Z,26.48
2023-04-10T12:25:31.518Z,26.49
2023-04-10T12:26:31.526Z,26.50
2023-04-10T12:27:31.534Z,26.50
2023-04-10T12:28:31.565Z,26.50
2023-04-10T12:29:31.581Z,26.50
2023-04-10T12:30:31.584Z,26.51
2023-04-10T12:31:31.692Z,26.52
2023-04-10T12:32:31.672Z,26.52
2023-04-10T12:33:31.646Z,26.52
2023-04-10T12:34:31.612Z,26.53
2023-04-10T12:35:31.657Z,26.54
2023-04-10T12:36:31.626Z,26.54
2023-04-10T12:37:31.631Z,26.54
2023-04-10T12:38:31.670Z,26.55
2023-04-10T12:39:31.676Z,26.56
2023-04-10T12:40:31.709Z,26.56
2023-04-10T12:41:31.701Z,26.56
2023-04-10T12:42:31.757Z,26.56
2023-04-10T12:43:31.659Z,26.56
2023-04-10T12:44:31.573Z,26.59
2023-04-10T12:45:31.512Z,26.59
2023-04-10T12:46:31.480Z,26.60
2023-04-10T12:47:31.445Z,26.60
2023-04-10T12:48:31.368Z,26.61
2023-04-10T12:49:31.299Z,26.61
2023-04-10T12:50:31.305Z,26.62
2023-04-10T12:51:31.210Z,26.63
2023-04-10T12:52:31.219Z,26.64